Time;durP1;ratioP1;P1;durP2;ratioP2;P2;SDS_P1;SDS_P2;PMS_P1;PMS_P2;Temp;Humidity;BMP_temperature;BMP_pressure;BME280_temperature;BME280_humidity;BME280_pressure;Samples;Min_cycle;Max_cycle;Signal;HPM_P1;HPM_P2
2022/03/26 00:02:13;;;;;;;11.60;8.98;;;14.50;1.00;;;;;;5127482;27;20055;-48
2022/03/26 00:04:38;;;;;;;12.32;8.90;;;14.50;1.00;;;;;;5116605;27;20572;-53
2022/03/26 00:07:04;;;;;;;13.00;8.70;;;14.50;1.00;;;;;;5123701;27;20031;-49
2022/03/26 00:09:30;;;;;;;14.38;8.77;;;14.50;1.00;;;;;;5115761;27;20036;-54
2022/03/26 00:11:56;;;;;;;13.80;8.98;;;14.50;1.00;;;;;;5124160;27;20114;-48
2022/03/26 00:14:22;;;;;;;16.13;9.50;;;14.40;1.00;;;;;;5128621;27;20102;-49
2022/03/26 00:16:47;;;;;;;13.68;9.50;;;14.40;1.00;;;;;;5127428;27;20032;-49
2022/03/26 00:19:14;;;;;;;13.77;9.52;;;14.40;1.00;;;;;;5132729;27;20206;-48
2022/03/26 00:21:40;;;;;;;14.30;9.52;;;14.40;1.00;;;;;;5126389;27;20042;-50
2022/03/26 00:24:06;;;;;;;13.35;9.50;;;14.40;1.00;;;;;;5134986;27;20068;-49
2022/03/26 00:26:33;;;;;;;14.13;9.45;;;14.40;1.00;;;;;;5129254;27;20040;-48
2022/03/26 00:28:59;;;;;;;14.68;10.00;;;14.30;1.00;;;;;;5114091;28;20392;-49
2022/03/26 00:31:25;;;;;;;12.85;8.95;;;14.30;1.00;;;;;;5118350;27;20035;-47
2022/03/26 00:33:53;;;;;;;13.77;9.10;;;14.30;1.00;;;;;;5125917;27;20023;-50
2022/03/26 00:36:19;;;;;;;13.63;9.30;;;14.30;1.00;;;;;;5098492;27;20369;-48
2022/03/26 00:38:45;;;;;;;14.63;8.80;;;14.30;1.00;;;;;;5134413;27;20031;-51
2022/03/26 00:41:11;;;;;;;11.43;8.95;;;14.20;1.00;;;;;;5116236;27;20054;-48
2022/03/26 00:43:37;;;;;;;13.77;9.57;;;14.20;1.00;;;;;;5111749;27;20388;-49
2022/03/26 00:46:03;;;;;;;12.68;8.90;;;14.20;1.00;;;;;;5113822;27;20436;-51
2022/03/26 00:48:28;;;;;;;13.85;9.82;;;14.20;1.00;;;;;;5118662;27;20057;-48
2022/03/26 00:50:55;;;;;;;13.40;9.05;;;14.30;1.00;;;;;;5107387;28;20019;-51
2022/03/26 00:53:20;;;;;;;12.65;9.20;;;14.20;1.00;;;;;;5131304;27;20115;-48
2022/03/26 00:55:46;;;;;;;16.33;9.43;;;14.20;1.00;;;;;;5114599;28;20440;-48
2022/03/26 00:58:12;;;;;;;13.20;9.63;;;14.20;1.00;;;;;;5095452;28;20537;-48
2022/03/26 01:00:38;;;;;;;11.68;9.45;;;14.20;1.00;;;;;;5097135;27;21702;-48
2022/03/26 01:03:08;;;;;;;14.48;9.82;;;14.20;1.00;;;;;;5117182;27;20380;-48
2022/03/26 01:05:34;;;;;;;15.48;9.45;;;14.20;1.00;;;;;;5113837;27;20432;-47
2022/03/26 01:08:00;;;;;;;11.80;9.23;;;14.10;1.00;;;;;;5115800;27;20063;-49
2022/03/26 01:10:26;;;;;;;16.65;9.45;;;14.10;1.00;;;;;;5126170;27;20532;-48
2022/03/26 01:12:52;;;;;;;14.93;9.07;;;14.00;1.00;;;;;;5128584;27;20375;-49
2022/03/26 01:15:18;;;;;;;12.70;8.98;;;14.00;1.00;;;;;;5116498;27;20536;-49
2022/03/26 01:17:44;;;;;;;12.30;9.23;;;14.00;1.00;;;;;;5122592;27;20435;-50
2022/03/26 01:20:11;;;;;;;12.25;8.85;;;14.00;1.00;;;;;;5121091;27;20430;-52
2022/03/26 01:22:37;;;;;;;11.65;9.60;;;14.00;1.00;;;;;;5124285;27;20031;-48
2022/03/26 01:25:05;;;;;;;15.48;9.82;;;14.00;1.00;;;;;;5125529;27;20027;-49
2022/03/26 01:27:31;;;;;;;11.15;8.93;;;14.00;1.00;;;;;;5123422;27;20038;-52
2022/03/26 01:29:57;;;;;;;12.23;8.77;;;14.00;1.00;;;;;;5128395;27;20023;-49
2022/03/26 01:32:23;;;;;;;13.77;9.13;;;13.90;1.00;;;;;;5116664;27;20030;-48
2022/03/26 01:34:49;;;;;;;15.70;9.60;;;13.90;1.00;;;;;;5104083;27;20122;-53
2022/03/26 01:37:16;;;;;;;11.52;8.77;;;13.80;1.00;;;;;;5132887;27;20027;-52
2022/03/26 01:39:42;;;;;;;13.70;8.27;;;13.80;1.00;;;;;;5118598;27;20103;-49
2022/03/26 01:42:09;;;;;;;12.43;9.25;;;13.80;1.00;;;;;;5119753;27;20038;-49
2022/03/26 01:44:37;;;;;;;12.00;8.82;;;13.90;1.00;;;;;;5123715;27;20030;-49
2022/03/26 01:47:04;;;;;;;13.70;9.93;;;13.80;1.00;;;;;;5121644;27;20027;-50
2022/03/26 01:49:31;;;;;;;11.80;9.30;;;13.80;1.00;;;;;;5119296;27;20103;-51
2022/03/26 01:51:59;;;;;;;17.17;9.75;;;13.80;1.00;;;;;;5127661;27;20058;-51
2022/03/26 01:54:26;;;;;;;16.65;9.57;;;13.80;1.00;;;;;;5127578;27;20027;-52
2022/03/26 01:56:54;;;;;;;13.18;9.50;;;13.80;1.00;;;;;;5109626;27;20437;-51
2022/03/26 01:59:19;;;;;;;16.40;10.43;;;13.80;1.00;;;;;;5129705;27;20031;-52
2022/03/26 02:01:45;;;;;;;16.13;11.05;;;13.80;1.00;;;;;;5114867;27;20472;-52
2022/03/26 02:04:11;;;;;;;14.73;10.18;;;13.80;1.00;;;;;;5126765;27;20054;-54
2022/03/26 02:06:39;;;;;;;14.98;10.20;;;13.70;1.00;;;;;;5106303;27;20046;-48
2022/03/26 02:09:08;;;;;;;15.68;9.98;;;13.70;1.00;;;;;;5124100;27;20514;-50
2022/03/26 02:11:37;;;;;;;17.10;10.68;;;13.70;1.00;;;;;;5119138;27;20107;-47
2022/03/26 02:14:03;;;;;;;15.73;9.60;;;13.70;1.00;;;;;;5125693;27;20411;-51
2022/03/26 02:16:31;;;;;;;16.38;10.30;;;13.70;1.00;;;;;;5130645;28;20470;-47
2022/03/26 02:18:57;;;;;;;14.35;9.77;;;13.70;1.00;;;;;;5112892;28;20161;-48
2022/03/26 02:21:23;;;;;;;14.60;10.85;;;13.70;1.00;;;;;;5122767;27;20023;-53
2022/03/26 02:23:51;;;;;;;10.98;9.73;;;13.60;1.00;;;;;;5132160;27;20076;-51
2022/03/26 02:26:22;;;;;;;19.42;10.40;;;13.60;1.00;;;;;;5107406;27;20034;-49
2022/03/26 02:28:51;;;;;;;14.82;10.43;;;13.60;1.00;;;;;;5126614;27;20042;-52
2022/03/26 02:31:17;;;;;;;14.88;11.30;;;13.60;1.00;;;;;;5118765;27;20028;-50
2022/03/26 02:33:43;;;;;;;13.52;11.07;;;13.50;1.00;;;;;;5121829;27;20358;-53
2022/03/26 02:36:09;;;;;;;13.18;9.43;;;13.40;1.00;;;;;;5135146;27;20031;-50
2022/03/26 02:38:36;;;;;;;15.90;10.43;;;13.40;1.00;;;;;;5126816;27;20042;-51
2022/03/26 02:41:02;;;;;;;15.32;10.40;;;13.40;1.00;;;;;;5116907;27;20047;-53
2022/03/26 02:43:27;;;;;;;17.77;10.00;;;13.40;1.00;;;;;;5131024;27;20302;-53
2022/03/26 02:45:53;;;;;;;17.20;10.35;;;13.40;1.00;;;;;;5122972;27;20035;-52
2022/03/26 02:48:19;;;;;;;13.77;10.50;;;13.40;1.00;;;;;;5122843;27;20480;-47
2022/03/26 02:50:45;;;;;;;19.33;11.05;;;13.40;1.00;;;;;;5125233;27;20024;-48
2022/03/26 02:53:12;;;;;;;13.52;10.55;;;13.40;1.00;;;;;;5121083;27;20056;-51
2022/03/26 02:55:38;;;;;;;18.27;10.77;;;13.40;1.00;;;;;;5099066;28;20027;-51
2022/03/26 02:58:07;;;;;;;15.25;10.90;;;13.40;1.00;;;;;;5116163;28;20059;-49
2022/03/26 03:00:34;;;;;;;16.95;10.60;;;13.40;1.00;;;;;;5132627;27;20023;-49
2022/03/26 03:03:00;;;;;;;15.63;10.40;;;13.40;1.00;;;;;;5113658;27;20031;-48
2022/03/26 03:05:26;;;;;;;18.23;10.20;;;13.40;1.00;;;;;;5117633;27;20019;-48
2022/03/26 03:07:53;;;;;;;15.93;10.15;;;13.30;1.00;;;;;;5114410;27;20437;-49
2022/03/26 03:10:19;;;;;;;18.30;10.48;;;13.30;1.00;;;;;;5128673;27;20023;-49
2022/03/26 03:12:46;;;;;;;16.95;10.68;;;13.30;1.00;;;;;;5134834;27;20038;-52
2022/03/26 03:15:18;;;;;;;18.02;9.77;;;13.30;1.00;;;;;;5131574;27;20092;-49
2022/03/26 03:17:45;;;;;;;15.68;10.93;;;13.20;1.00;;;;;;5124703;27;20110;-49
2022/03/26 03:20:12;;;;;;;15.10;11.20;;;13.20;1.00;;;;;;5126146;27;20051;-51
2022/03/26 03:22:38;;;;;;;13.80;11.27;;;13.30;1.00;;;;;;5117155;27;20396;-50
2022/03/26 03:25:05;;;;;;;20.95;11.73;;;13.40;1.00;;;;;;5123695;27;20472;-48
2022/03/26 03:27:31;;;;;;;20.42;10.98;;;13.20;1.00;;;;;;5116351;27;20524;-52
2022/03/26 03:29:57;;;;;;;15.38;11.07;;;13.20;1.00;;;;;;5115289;27;20383;-52
2022/03/26 03:32:23;;;;;;;13.80;10.57;;;13.10;1.00;;;;;;5116505;27;20122;-49
2022/03/26 03:34:49;;;;;;;13.07;10.48;;;13.10;1.00;;;;;;5124840;27;20034;-48
2022/03/26 03:37:15;;;;;;;18.80;11.57;;;13.10;1.00;;;;;;5116700;27;20027;-51
2022/03/26 03:39:41;;;;;;;14.20;10.52;;;13.00;1.00;;;;;;5122156;27;20027;-48
2022/03/26 03:42:08;;;;;;;16.60;11.68;;;13.00;1.00;;;;;;5132228;27;20055;-49
2022/03/26 03:44:34;;;;;;;14.35;11.05;;;13.00;1.00;;;;;;5105884;28;20068;-49
2022/03/26 03:47:00;;;;;;;16.08;12.38;;;12.90;1.00;;;;;;5127404;27;20039;-48
2022/03/26 03:49:26;;;;;;;17.52;11.80;;;13.00;1.00;;;;;;5132704;27;20364;-52
2022/03/26 03:51:53;;;;;;;16.38;12.23;;;13.00;1.00;;;;;;5117610;27;20024;-50
2022/03/26 03:54:19;;;;;;;17.48;12.25;;;12.90;1.00;;;;;;5119826;27;20432;-52
2022/03/26 03:56:44;;;;;;;16.67;11.75;;;12.90;1.00;;;;;;5123216;27;20103;-49
2022/03/26 03:59:10;;;;;;;14.40;11.65;;;12.90;1.00;;;;;;5117248;27;20099;-49
2022/03/26 04:01:36;;;;;;;19.05;11.57;;;12.90;1.00;;;;;;5119031;27;20529;-52
2022/03/26 04:04:02;;;;;;;15.88;11.05;;;12.90;1.00;;;;;;5108940;27;20421;-52
2022/03/26 04:06:27;;;;;;;16.90;11.52;;;12.80;1.00;;;;;;5132406;27;20099;-50
2022/03/26 04:08:53;;;;;;;14.75;11.25;;;12.80;1.00;;;;;;5133307;27;20111;-52
2022/03/26 04:11:18;;;;;;;14.13;11.00;;;12.80;1.00;;;;;;5096084;28;20035;-49
2022/03/26 04:13:46;;;;;;;15.05;10.25;;;12.80;1.00;;;;;;5123998;27;20023;-51
2022/03/26 04:16:12;;;;;;;13.48;10.07;;;12.70;1.00;;;;;;5132763;27;20023;-52
2022/03/26 04:18:38;;;;;;;17.23;10.85;;;12.70;1.00;;;;;;5119800;27;20392;-49
2022/03/26 04:21:04;;;;;;;13.57;10.23;;;12.70;1.00;;;;;;5130788;27;20029;-51
2022/03/26 04:23:30;;;;;;;13.50;10.02;;;12.70;1.00;;;;;;5127541;27;20107;-53
2022/03/26 04:25:56;;;;;;;14.10;10.40;;;12.70;1.00;;;;;;5128598;27;20063;-51
2022/03/26 04:28:21;;;;;;;16.83;10.65;;;12.70;1.00;;;;;;5114360;27;20030;-49
2022/03/26 04:30:47;;;;;;;15.30;11.23;;;12.70;1.00;;;;;;5121666;27;20026;-48
2022/03/26 04:33:13;;;;;;;14.70;10.90;;;12.70;1.00;;;;;;5114997;27;20027;-50
2022/03/26 04:35:38;;;;;;;17.20;10.70;;;12.60;1.00;;;;;;5126545;27;20507;-50
2022/03/26 04:38:04;;;;;;;13.50;10.02;;;12.60;1.00;;;;;;5115941;27;20421;-53
2022/03/26 04:40:30;;;;;;;13.77;10.13;;;12.60;1.00;;;;;;5122204;27;20047;-52
2022/03/26 04:42:56;;;;;;;15.50;10.30;;;12.50;1.00;;;;;;5124227;27;20027;-50
2022/03/26 04:45:25;;;;;;;13.43;10.73;;;12.50;1.00;;;;;;5115968;27;20033;-50
2022/03/26 04:47:51;;;;;;;15.00;10.20;;;12.50;1.00;;;;;;5122962;27;20092;-49
2022/03/26 04:50:16;;;;;;;16.65;9.85;;;12.40;1.00;;;;;;5132045;27;20030;-53
2022/03/26 04:52:42;;;;;;;11.55;9.32;;;12.50;1.00;;;;;;5133927;27;20380;-48
2022/03/26 04:55:09;;;;;;;13.50;9.73;;;12.40;1.00;;;;;;5131946;27;20122;-49
2022/03/26 04:57:39;;;;;;;13.13;9.93;;;12.40;1.00;;;;;;5111395;27;20028;-49
2022/03/26 05:00:06;;;;;;;14.20;10.02;;;12.40;1.00;;;;;;5106101;28;20130;-50
2022/03/26 05:02:32;;;;;;;13.03;10.50;;;12.50;1.00;;;;;;5115006;27;20028;-49
2022/03/26 05:04:58;;;;;;;12.33;10.37;;;12.40;1.00;;;;;;5103926;27;20027;-52
2022/03/26 05:10:08;;;;;;;14.27;9.87;;;12.50;1.00;;;;;;5121354;27;20111;-49
2022/03/26 05:12:34;;;;;;;16.53;10.33;;;12.40;1.00;;;;;;5115686;27;20020;-49
2022/03/26 05:14:59;;;;;;;16.00;10.05;;;12.40;1.00;;;;;;5117405;27;20164;-51
2022/03/26 05:17:25;;;;;;;16.90;10.47;;;12.40;1.00;;;;;;5124898;27;20078;-49
2022/03/26 05:19:51;;;;;;;12.45;9.15;;;12.50;1.00;;;;;;5120941;27;20031;-49
2022/03/26 05:22:16;;;;;;;14.35;9.30;;;12.50;1.00;;;;;;5131352;27;20500;-49
2022/03/26 05:24:42;;;;;;;16.08;9.35;;;12.40;1.00;;;;;;5128056;27;20030;-50
2022/03/26 05:27:08;;;;;;;14.60;9.85;;;12.40;1.00;;;;;;5113643;27;20035;-51
2022/03/26 05:36:17;;;;;;;14.32;9.50;;;12.30;1.00;;;;;;5126636;27;20083;-51
2022/03/26 05:38:43;;;;;;;12.00;9.10;;;12.40;1.00;;;;;;5131043;27;20030;-48
2022/03/26 05:41:09;;;;;;;13.07;9.60;;;12.40;1.00;;;;;;5127945;27;20096;-49
2022/03/26 05:43:34;;;;;;;10.18;8.88;;;12.40;1.00;;;;;;5133303;27;20468;-50
2022/03/26 05:46:00;;;;;;;11.38;9.48;;;12.40;1.00;;;;;;5127583;27;20031;-48
2022/03/26 05:48:26;;;;;;;14.68;9.93;;;12.30;1.00;;;;;;5115913;27;20031;-51
2022/03/26 05:50:52;;;;;;;12.15;9.65;;;12.30;1.00;;;;;;5130561;27;20027;-49
2022/03/26 05:53:17;;;;;;;14.00;10.30;;;12.50;1.00;;;;;;5131911;27;20031;-49
2022/03/26 05:55:43;;;;;;;14.23;10.00;;;12.50;1.00;;;;;;5107001;27;20379;-54
2022/03/26 05:58:10;;;;;;;14.65;10.65;;;12.40;1.00;;;;;;5128720;27;20032;-49
2022/03/26 06:00:37;;;;;;;14.10;9.63;;;12.50;1.00;;;;;;5127409;27;20031;-49
2022/03/26 06:03:02;;;;;;;14.43;10.57;;;12.50;1.00;;;;;;5105209;28;20027;-53
2022/03/26 06:05:28;;;;;;;15.20;10.00;;;12.50;1.00;;;;;;5116028;27;20407;-52
2022/03/26 06:07:53;;;;;;;12.63;9.80;;;12.50;1.00;;;;;;5120757;27;20039;-52
2022/03/26 06:10:19;;;;;;;11.48;10.18;;;12.60;1.00;;;;;;5116087;27;20034;-50
2022/03/26 06:12:45;;;;;;;15.27;10.60;;;12.60;1.00;;;;;;5129050;27;20553;-53
2022/03/26 06:15:11;;;;;;;11.60;9.82;;;12.60;1.00;;;;;;5122181;27;20026;-50
2022/03/26 06:17:37;;;;;;;12.40;10.13;;;12.60;1.00;;;;;;5123691;27;20019;-53
2022/03/26 06:20:02;;;;;;;14.20;10.50;;;12.70;1.00;;;;;;5103397;28;20031;-52
2022/03/26 06:22:28;;;;;;;13.55;9.98;;;12.70;1.00;;;;;;5113069;28;20461;-50
2022/03/26 06:24:54;;;;;;;11.90;10.18;;;12.70;1.00;;;;;;5095076;28;20039;-53
2022/03/26 06:27:19;;;;;;;13.07;9.73;;;12.70;1.00;;;;;;5113786;28;20127;-49
2022/03/26 06:29:45;;;;;;;12.02;9.70;;;12.70;1.00;;;;;;5122312;28;20421;-51
2022/03/26 06:32:11;;;;;;;16.90;10.30;;;12.70;1.00;;;;;;5131366;28;20024;-50
2022/03/26 06:34:36;;;;;;;12.82;9.57;;;12.70;1.00;;;;;;5124565;28;20015;-50
2022/03/26 06:37:02;;;;;;;14.40;10.70;;;12.70;1.00;;;;;;5116986;28;20102;-48
2022/03/26 06:39:28;;;;;;;17.50;10.13;;;12.80;1.00;;;;;;5118782;28;20148;-52
2022/03/26 06:41:53;;;;;;;15.85;11.48;;;12.80;1.00;;;;;;5123036;28;20138;-52
2022/03/26 06:44:19;;;;;;;16.38;10.43;;;12.80;1.00;;;;;;5130852;28;20042;-53
2022/03/26 06:46:45;;;;;;;13.25;11.20;;;12.80;1.00;;;;;;5127182;28;20031;-50
2022/03/26 06:49:10;;;;;;;16.48;11.02;;;12.90;1.00;;;;;;5130958;28;20388;-49
2022/03/26 06:51:37;;;;;;;15.88;12.05;;;12.90;1.00;;;;;;5132952;28;20023;-52
2022/03/26 06:54:03;;;;;;;14.60;11.25;;;12.90;1.00;;;;;;5114741;28;20070;-52
2022/03/26 06:56:28;;;;;;;12.55;11.25;;;13.00;1.00;;;;;;5130545;28;20042;-50
2022/03/26 06:58:55;;;;;;;14.07;11.67;;;12.90;1.00;;;;;;5133036;28;20028;-48
2022/03/26 07:01:21;;;;;;;13.80;10.57;;;12.90;1.00;;;;;;5131767;28;20034;-49
2022/03/26 07:03:47;;;;;;;14.50;11.30;;;13.00;1.00;;;;;;5131743;28;20029;-51
2022/03/26 07:06:15;;;;;;;15.90;11.35;;;13.00;1.00;;;;;;5130654;28;20114;-52
2022/03/26 07:08:41;;;;;;;14.27;11.55;;;13.10;1.00;;;;;;5134934;27;20480;-49
2022/03/26 07:11:07;;;;;;;14.18;11.23;;;13.10;1.00;;;;;;5134960;27;20066;-54
2022/03/26 07:13:32;;;;;;;15.60;11.52;;;13.10;1.00;;;;;;5136365;27;20099;-48
2022/03/26 07:15:58;;;;;;;15.95;11.55;;;13.20;1.00;;;;;;5135324;27;20034;-53
2022/03/26 07:18:24;;;;;;;17.20;11.23;;;13.10;1.00;;;;;;5115704;28;20019;-49
2022/03/26 07:20:52;;;;;;;13.20;11.85;;;13.20;1.00;;;;;;5129122;27;20024;-51
2022/03/26 07:23:18;;;;;;;17.30;12.15;;;13.10;1.00;;;;;;5136642;27;20449;-50
2022/03/26 07:25:43;;;;;;;14.88;12.38;;;13.20;1.00;;;;;;5135575;27;20076;-52
2022/03/26 07:28:09;;;;;;;18.20;11.95;;;13.20;1.00;;;;;;5123497;27;20499;-50
2022/03/26 07:30:35;;;;;;;15.98;12.07;;;13.30;1.00;;;;;;5116621;27;20034;-51
2022/03/26 07:33:02;;;;;;;15.68;12.43;;;13.30;1.00;;;;;;5116243;28;20115;-54
2022/03/26 07:35:30;;;;;;;16.23;13.45;;;13.40;1.00;;;;;;5125690;27;20025;-49
2022/03/26 07:37:55;;;;;;;17.10;13.30;;;13.40;1.00;;;;;;5136204;27;20464;-50
2022/03/26 07:40:21;;;;;;;19.05;13.88;;;13.40;1.00;;;;;;5135071;27;20127;-54
2022/03/26 07:42:47;;;;;;;16.00;13.20;;;13.40;1.00;;;;;;5136322;27;20027;-54
2022/03/26 07:45:12;;;;;;;17.63;13.63;;;13.50;1.00;;;;;;5134911;27;20106;-49
2022/03/26 07:47:38;;;;;;;19.20;14.30;;;13.60;1.00;;;;;;5136095;27;20477;-49
2022/03/26 07:50:06;;;;;;;18.77;14.25;;;13.70;1.00;;;;;;5134712;27;20030;-49
2022/03/26 07:52:32;;;;;;;23.60;15.93;;;13.70;1.00;;;;;;5117669;27;20054;-49
2022/03/26 07:54:58;;;;;;;19.52;14.88;;;13.80;1.00;;;;;;5129946;27;20092;-51
2022/03/26 07:57:23;;;;;;;22.75;17.15;;;13.80;1.00;;;;;;5099956;27;20039;-49
2022/03/26 07:59:49;;;;;;;23.35;15.52;;;13.80;1.00;;;;;;5134185;27;20027;-49
2022/03/26 08:02:37;;;;;;;20.85;15.02;;;13.80;1.00;;;;;;5117408;27;20028;-52
2022/03/26 08:05:04;;;;;;;17.83;14.55;;;13.80;1.00;;;;;;5104535;27;20023;-50
2022/03/26 08:07:30;;;;;;;19.58;15.00;;;13.80;1.00;;;;;;5135912;27;20049;-50
2022/03/26 08:09:56;;;;;;;22.63;15.70;;;13.90;1.00;;;;;;5116371;27;20019;-49
2022/03/26 08:12:21;;;;;;;21.13;15.55;;;13.90;1.00;;;;;;5135648;27;20027;-50
2022/03/26 08:14:48;;;;;;;24.13;16.02;;;14.00;1.00;;;;;;5134291;27;20491;-50
2022/03/26 08:17:14;;;;;;;23.77;16.48;;;14.00;1.00;;;;;;5135386;27;20030;-49
2022/03/26 08:19:40;;;;;;;22.88;17.70;;;14.10;1.00;;;;;;5134013;27;20012;-51
2022/03/26 08:22:05;;;;;;;26.23;17.17;;;14.10;1.00;;;;;;5135138;27;20479;-52
2022/03/26 08:24:31;;;;;;;21.45;15.45;;;14.20;1.00;;;;;;5134247;27;20060;-53
2022/03/26 08:26:57;;;;;;;20.92;17.48;;;14.20;1.00;;;;;;5113465;28;20507;-52
2022/03/26 08:29:22;;;;;;;23.73;18.63;;;14.20;1.00;;;;;;5114499;28;20401;-51
2022/03/26 08:31:49;;;;;;;19.90;16.90;;;14.30;1.00;;;;;;5115777;27;20036;-53
2022/03/26 08:34:14;;;;;;;25.27;17.95;;;14.40;1.00;;;;;;5129685;27;20031;-54
2022/03/26 08:36:40;;;;;;;22.92;16.95;;;14.40;1.00;;;;;;5098895;27;20495;-49
2022/03/26 08:39:06;;;;;;;24.85;17.95;;;14.40;1.00;;;;;;5135212;27;20027;-50
2022/03/26 08:41:32;;;;;;;21.10;16.35;;;14.40;1.00;;;;;;5133591;27;20070;-52
2022/03/26 08:43:58;;;;;;;18.38;16.17;;;14.50;1.00;;;;;;5116688;27;20062;-50
2022/03/26 08:46:24;;;;;;;21.17;16.60;;;14.70;1.00;;;;;;5100230;28;20063;-51
2022/03/26 08:48:51;;;;;;;22.98;17.48;;;14.70;1.00;;;;;;5114193;28;20024;-49
2022/03/26 08:51:17;;;;;;;23.30;19.38;;;14.70;1.00;;;;;;5119557;27;20487;-52
2022/03/26 08:53:43;;;;;;;27.08;19.90;;;14.80;1.00;;;;;;5114244;28;20027;-54
2022/03/26 08:56:09;;;;;;;23.90;18.77;;;14.80;1.00;;;;;;5126230;27;20023;-52
2022/03/26 08:58:36;;;;;;;26.15;19.90;;;14.90;1.00;;;;;;5133785;27;20391;-52
2022/03/26 09:01:02;;;;;;;28.05;18.27;;;14.90;1.00;;;;;;5128019;27;20168;-53
2022/03/26 09:03:28;;;;;;;25.48;17.02;;;15.00;1.00;;;;;;5113983;28;20549;-51
2022/03/26 09:05:54;;;;;;;25.58;17.20;;;15.00;1.00;;;;;;5098048;27;20023;-51
2022/03/26 09:08:20;;;;;;;28.35;18.48;;;15.10;1.00;;;;;;5134030;27;20031;-49
2022/03/26 09:10:46;;;;;;;20.88;17.30;;;15.10;1.00;;;;;;5114773;27;20019;-54
2022/03/26 09:13:12;;;;;;;22.50;17.15;;;15.10;1.00;;;;;;5133061;27;20475;-53
2022/03/26 09:15:38;;;;;;;23.08;17.40;;;15.20;1.00;;;;;;5133087;27;20068;-49
2022/03/26 09:18:05;;;;;;;22.65;17.08;;;15.30;1.00;;;;;;5131042;27;20030;-52
2022/03/26 09:20:31;;;;;;;23.23;17.20;;;15.30;1.00;;;;;;5134030;27;20551;-51
2022/03/26 09:22:57;;;;;;;20.90;17.02;;;15.30;1.00;;;;;;5131649;27;20464;-53
2022/03/26 09:25:23;;;;;;;26.27;17.88;;;15.50;1.00;;;;;;5134011;27;20039;-54
2022/03/26 09:27:49;;;;;;;21.20;17.00;;;15.50;1.00;;;;;;5132406;27;20046;-51
2022/03/26 09:30:15;;;;;;;21.25;16.58;;;15.50;1.00;;;;;;5130712;27;20171;-52
2022/03/26 09:32:44;;;;;;;20.73;17.10;;;15.60;1.00;;;;;;5125704;27;20040;-52
2022/03/26 09:35:11;;;;;;;21.38;16.98;;;15.60;1.00;;;;;;5094924;28;20195;-51
2022/03/26 09:37:38;;;;;;;22.17;17.83;;;15.70;1.00;;;;;;5128690;27;20019;-52
2022/03/26 09:40:04;;;;;;;23.80;18.27;;;15.70;1.00;;;;;;5132252;27;20035;-50
2022/03/26 09:42:32;;;;;;;21.05;17.15;;;15.80;1.00;;;;;;5130140;27;20046;-48
2022/03/26 09:44:58;;;;;;;21.83;17.92;;;16.10;1.00;;;;;;5115175;27;20544;-49
2022/03/26 09:47:24;;;;;;;28.05;19.08;;;16.10;1.00;;;;;;5132261;27;20117;-48
2022/03/26 09:49:50;;;;;;;24.80;17.27;;;16.10;1.00;;;;;;5133428;27;20106;-50
2022/03/26 09:52:16;;;;;;;26.15;18.58;;;16.30;1.00;;;;;;5132176;27;20133;-50
2022/03/26 09:54:43;;;;;;;24.00;18.92;;;16.20;1.00;;;;;;5130852;27;20038;-52
2022/03/26 09:57:09;;;;;;;24.05;18.40;;;16.30;1.00;;;;;;5108427;27;20422;-48
2022/03/26 09:59:35;;;;;;;25.40;17.67;;;16.30;1.00;;;;;;5094261;28;20024;-52
2022/03/26 10:02:02;;;;;;;22.40;18.27;;;16.40;1.00;;;;;;5127172;27;20035;-51
2022/03/26 10:04:39;;;;;;;24.83;18.05;;;16.60;1.00;;;;;;5133254;27;20029;-52
2022/03/26 10:11:14;;;;;;;22.65;18.52;;;16.60;1.00;;;;;;5128042;27;20034;-50
2022/03/26 10:13:43;;;;;;;25.33;18.50;;;16.80;1.00;;;;;;5123533;27;20152;-50
2022/03/26 10:16:13;;;;;;;23.20;17.85;;;16.70;1.00;;;;;;5132167;27;20047;-53
2022/03/26 10:22:01;;;;;;;25.48;17.75;;;16.90;1.00;;;;;;5118548;28;20451;-50
2022/03/26 10:24:26;;;;;;;25.35;18.63;;;16.90;1.00;;;;;;5121028;28;20035;-48
2022/03/26 10:26:52;;;;;;;26.33;18.77;;;16.90;1.00;;;;;;5127010;28;20077;-49
2022/03/26 10:29:17;;;;;;;23.73;19.00;;;17.00;1.00;;;;;;5116048;28;20099;-48
2022/03/26 10:34:27;;;;;;;26.65;19.02;;;17.40;1.00;;;;;;5128048;28;20548;-49
2022/03/26 10:37:01;;;;;;;28.02;19.45;;;17.40;1.00;;;;;;5130169;28;20103;-48
2022/03/26 10:39:28;;;;;;;;;;;17.50;1.00;;;;;;5132363;28;20019;-49
2022/03/26 10:41:57;;;;;;;24.00;19.02;;;17.30;1.00;;;;;;5132947;27;20368;-49
2022/03/26 10:44:25;;;;;;;26.42;19.75;;;17.60;1.00;;;;;;5136739;27;20023;-48
2022/03/26 10:46:54;;;;;;;26.75;20.85;;;17.60;1.00;;;;;;5135687;27;20031;-50
2022/03/26 10:49:32;;;;;;;26.75;19.70;;;17.70;1.00;;;;;;5136874;27;20541;-50
2022/03/26 10:52:16;;;;;;;28.42;20.08;;;17.70;1.00;;;;;;5134795;27;20022;-51
2022/03/26 10:54:41;;;;;;;26.80;19.83;;;17.70;1.00;;;;;;5136719;27;20099;-48
2022/03/26 10:57:08;;;;;;;24.05;21.45;;;17.70;1.00;;;;;;5135347;27;20041;-48
2022/03/26 10:59:34;;;;;;;25.48;20.50;;;17.90;1.00;;;;;;5128659;27;20464;-50
2022/03/26 11:02:00;;;;;;;26.00;21.25;;;18.10;1.00;;;;;;5098309;27;20365;-53
2022/03/26 11:04:27;;;;;;;27.33;21.50;;;18.20;1.00;;;;;;5135808;27;20035;-50
2022/03/26 11:06:55;;;;;;;28.77;22.23;;;18.20;1.00;;;;;;5116532;27;20446;-50
2022/03/26 11:09:21;;;;;;;27.00;21.27;;;18.10;1.00;;;;;;5097928;28;20028;-48
2022/03/26 11:11:49;;;;;;;30.17;21.58;;;18.10;1.00;;;;;;5122064;27;20031;-51
2022/03/26 11:14:24;;;;;;;27.63;22.00;;;18.30;1.00;;;;;;5126685;27;20019;-48
2022/03/26 11:16:55;;;;;;;27.73;21.88;;;18.60;1.00;;;;;;5136639;27;20102;-50
2022/03/26 11:19:40;;;;;;;24.90;20.80;;;18.40;1.00;;;;;;5135647;27;20042;-50
2022/03/26 11:22:34;;;;;;;26.83;21.80;;;18.40;1.00;;;;;;5134997;27;20027;-52
2022/03/26 11:25:09;;;;;;;30.08;23.63;;;18.80;1.00;;;;;;5117883;27;20023;-51
2022/03/26 11:27:59;;;;;;;26.90;22.50;;;18.90;1.00;;;;;;5118950;27;21373;-51
2022/03/26 11:30:51;;;;;;;27.25;22.48;;;19.00;1.00;;;;;;5130938;27;20030;-49
2022/03/26 11:33:19;;;;;;;38.08;26.33;;;19.30;1.00;;;;;;5126431;27;20027;-52
2022/03/26 11:36:00;;;;;;;37.45;26.25;;;19.00;1.00;;;;;;5133025;27;20017;-49
2022/03/26 11:38:28;;;;;;;38.20;27.45;;;19.00;1.00;;;;;;5131702;27;20032;-48
2022/03/26 11:40:55;;;;;;;65.60;34.22;;;18.90;1.00;;;;;;5121550;27;20038;-49
2022/03/26 11:43:43;;;;;;;30.02;22.27;;;19.00;1.00;;;;;;5131024;27;20027;-48
2022/03/26 11:52:18;;;;;;;28.88;21.83;;;19.70;1.00;;;;;;5131413;27;20062;-48
2022/03/26 11:54:45;;;;;;;25.95;22.52;;;19.70;1.00;;;;;;5100044;27;20378;-51
2022/03/26 11:57:23;;;;;;;25.90;21.50;;;20.00;1.00;;;;;;5133985;27;20031;-47
2022/03/26 11:59:49;;;;;;;27.67;20.30;;;19.90;1.00;;;;;;5133468;27;20502;-46
2022/03/26 12:02:27;;;;;;;25.00;19.80;;;19.70;1.00;;;;;;5133576;27;20068;-49
2022/03/26 12:04:57;;;;;;;25.55;20.92;;;19.70;1.00;;;;;;5133565;27;20037;-49
2022/03/26 12:07:28;;;;;;;29.00;19.92;;;20.10;1.00;;;;;;5133584;27;20027;-49
2022/03/26 12:10:11;;;;;;;24.65;21.30;;;20.20;1.00;;;;;;5135781;27;20043;-48
2022/03/26 12:13:00;;;;;;;25.45;20.17;;;20.00;1.00;;;;;;5133270;27;20116;-48
2022/03/26 12:15:27;;;;;;;28.83;22.27;;;20.00;1.00;;;;;;5132853;27;20042;-50
2022/03/26 12:18:12;;;;;;;30.00;23.17;;;20.50;1.00;;;;;;5133996;27;20513;-52
2022/03/26 12:20:45;;;;;;;;;;;20.90;1.00;;;;;;5135866;27;20122;-48
2022/03/26 12:23:15;;;;;;;23.52;20.25;;;20.70;1.00;;;;;;5134112;27;20488;-49
2022/03/26 12:25:50;;;;;;;30.88;23.42;;;21.00;1.00;;;;;;5134442;27;20023;-53
2022/03/26 12:28:24;;;;;;;23.83;20.20;;;21.00;1.00;;;;;;5133596;27;20547;-49
2022/03/26 12:31:12;;;;;;;;;;;21.10;1.00;;;;;;5132496;27;20027;-48
2022/03/26 12:33:44;;;;;;;21.25;17.88;;;21.30;1.00;;;;;;5133773;27;20376;-47
2022/03/26 12:36:12;;;;;;;20.65;18.40;;;21.40;1.00;;;;;;5134726;27;20024;-47
2022/03/26 12:38:38;;;;;;;20.15;18.05;;;21.40;1.00;;;;;;5115273;27;20361;-52
2022/03/26 12:41:06;;;;;;;22.73;17.73;;;21.70;1.00;;;;;;5134697;27;20042;-48
2022/03/26 12:43:32;;;;;;;22.08;18.63;;;22.30;1.00;;;;;;5133400;27;20031;-49
2022/03/26 12:46:00;;;;;;;22.23;19.45;;;25.80;1.00;;;;;;5134957;27;20126;-48
2022/03/26 12:48:29;;;;;;;25.48;20.95;;;29.30;1.00;;;;;;5106863;28;20110;-49
2022/03/26 12:51:01;;;;;;;27.15;21.20;;;32.80;1.00;;;;;;5113933;27;20038;-52
2022/03/26 12:53:34;;;;;;;30.67;25.92;;;;;;;;;;5122436;27;20030;-49
2022/03/26 12:56:00;;;;;;;22.80;20.48;;;;;;;;;;5134938;27;20034;-49
2022/03/26 13:01:15;;;;;;;23.58;21.13;;;;;;;;;;5133627;27;20049;-48
2022/03/26 13:03:42;;;;;;;26.10;23.35;;;;;;;;;;5131481;27;20118;-48
2022/03/26 13:06:12;;;;;;;21.13;18.85;;;;;;;;;;5133181;27;20372;-47
2022/03/26 13:08:38;;;;;;;20.80;18.73;;;;;;;;;;5133055;27;20395;-48
2022/03/26 13:11:05;;;;;;;21.88;18.73;;;;;;;;;;5116124;27;20075;-49
2022/03/26 13:13:32;;;;;;;23.02;20.73;;;;;;;;;;5133207;27;20387;-48